createdAt,value
2022-07-30T00:01:18.126Z,20.70
2022-07-30T00:03:45.175Z,20.67
2022-07-30T00:06:12.147Z,20.65
2022-07-30T00:08:39.116Z,20.61
2022-07-30T00:11:06.166Z,20.60
2022-07-30T00:13:33.122Z,20.57
2022-07-30T00:16:00.110Z,20.55
2022-07-30T00:18:27.059Z,20.53
2022-07-30T00:20:53.996Z,20.49
2022-07-30T00:23:23.409Z,20.48
2022-07-30T00:25:50.380Z,20.46
2022-07-30T00:28:17.320Z,20.45
2022-07-30T00:30:44.338Z,20.41
2022-07-30T00:33:11.310Z,20.40
2022-07-30T00:35:39.680Z,20.37
2022-07-30T00:38:06.664Z,20.35
2022-07-30T00:40:33.701Z,20.34
2022-07-30T00:43:00.682Z,20.32
2022-07-30T00:45:28.022Z,20.30
2022-07-30T00:47:55.027Z,20.28
2022-07-30T00:50:21.992Z,20.26
2022-07-30T00:52:49.320Z,20.23
2022-07-30T00:55:16.322Z,20.22
2022-07-30T00:57:44.564Z,20.20
2022-07-30T01:00:16.559Z,20.16
2022-07-30T01:02:43.880Z,20.13
2022-07-30T01:05:11.506Z,20.11
2022-07-30T01:07:38.560Z,20.08
2022-07-30T01:10:07.986Z,20.05
2022-07-30T01:12:35.275Z,20.02
2022-07-30T01:15:06.193Z,19.99
2022-07-30T01:17:34.365Z,19.96
2022-07-30T01:20:11.177Z,19.95
2022-07-30T01:22:53.024Z,19.90
2022-07-30T01:25:32.107Z,19.88
2022-07-30T01:28:08.920Z,19.84
2022-07-30T01:30:40.908Z,19.82
2022-07-30T01:33:12.505Z,19.80
2022-07-30T01:35:41.904Z,19.77
2022-07-30T01:38:11.342Z,19.75
2022-07-30T01:40:39.667Z,19.73
2022-07-30T01:43:08.084Z,19.71
2022-07-30T01:45:42.136Z,19.69
2022-07-30T01:48:14.693Z,19.65
2022-07-30T01:50:54.752Z,19.61
2022-07-30T01:53:27.007Z,19.60
2022-07-30T01:55:56.014Z,19.56
2022-07-30T01:58:29.567Z,19.54
2022-07-30T02:01:04.489Z,19.50
2022-07-30T02:03:32.717Z,19.47
2022-07-30T02:06:17.725Z,19.40
2022-07-30T02:08:58.579Z,19.30
2022-07-30T02:11:45.866Z,19.16
2022-07-30T02:14:27.833Z,19.13
2022-07-30T02:16:58.966Z,19.09
2022-07-30T02:19:36.629Z,19.06
2022-07-30T02:22:12.871Z,19.02
2022-07-30T02:24:43.777Z,19.00
2022-07-30T02:27:18.016Z,18.98
2022-07-30T02:29:47.384Z,18.92
2022-07-30T02:32:20.179Z,18.90
2022-07-30T02:34:53.405Z,18.86
2022-07-30T02:37:42.948Z,18.84
2022-07-30T02:40:15.632Z,18.78
2022-07-30T02:42:46.802Z,18.77
2022-07-30T02:45:17.819Z,18.75
2022-07-30T02:47:53.569Z,18.72
2022-07-30T02:50:23.064Z,18.69
2022-07-30T02:52:51.743Z,18.66
2022-07-30T02:55:19.908Z,18.61
2022-07-30T02:57:49.097Z,18.57
2022-07-30T03:00:16.875Z,18.49
2022-07-30T03:02:46.134Z,18.45
2022-07-30T03:05:15.639Z,18.38
2022-07-30T03:07:44.305Z,18.30
2022-07-30T03:10:13.103Z,18.27
2022-07-30T03:12:44.310Z,18.28
2022-07-30T03:15:14.001Z,18.24
2022-07-30T03:17:46.280Z,18.26
2022-07-30T03:20:25.815Z,18.24
2022-07-30T03:22:55.924Z,18.22
2022-07-30T03:25:31.940Z,18.17
2022-07-30T03:28:03.910Z,18.11
2022-07-30T03:30:33.419Z,18.07
2022-07-30T03:33:01.095Z,18.05
2022-07-30T03:35:30.450Z,18.04
2022-07-30T03:38:00.312Z,17.97
2022-07-30T03:40:28.628Z,17.95
2022-07-30T03:42:56.301Z,17.91
2022-07-30T03:45:25.352Z,17.86
2022-07-30T03:47:57.362Z,17.82
2022-07-30T03:50:24.848Z,17.74
2022-07-30T03:52:53.126Z,17.76
2022-07-30T03:55:21.828Z,17.77
2022-07-30T03:57:48.935Z,17.79
2022-07-30T04:00:18.154Z,17.79
2022-07-30T04:02:49.869Z,17.74
2022-07-30T04:05:37.759Z,17.72
2022-07-30T04:08:08.744Z,17.69
2022-07-30T04:10:35.942Z,17.64
2022-07-30T04:13:31.705Z,17.60
2022-07-30T04:16:39.113Z,17.57
2022-07-30T04:19:03.657Z,17.53
2022-07-30T04:21:33.445Z,17.51
2022-07-30T04:24:05.587Z,17.48
2022-07-30T04:26:37.024Z,17.43
2022-07-30T04:29:08.168Z,17.38
2022-07-30T04:31:40.968Z,17.33
2022-07-30T04:34:26.835Z,17.29
2022-07-30T04:36:54.065Z,17.26
2022-07-30T04:39:21.147Z,17.28
2022-07-30T04:41:50.035Z,17.27
2022-07-30T04:44:43.682Z,17.27
2022-07-30T04:47:20.527Z,17.27
2022-07-30T04:50:00.900Z,17.29
2022-07-30T04:52:28.319Z,17.29
2022-07-30T04:55:02.723Z,17.29
2022-07-30T04:57:31.629Z,17.29
2022-07-30T04:59:59.019Z,17.30
2022-07-30T05:02:29.789Z,17.29
2022-07-30T05:04:58.270Z,17.29
2022-07-30T05:07:28.676Z,17.32
2022-07-30T05:09:55.783Z,17.37
2022-07-30T05:12:38.541Z,17.41
2022-07-30T05:15:09.739Z,17.43
2022-07-30T05:17:37.947Z,17.44
2022-07-30T05:20:08.569Z,17.47
2022-07-30T05:23:04.368Z,17.49
2022-07-30T05:25:31.490Z,17.52
2022-07-30T05:28:11.307Z,17.53
2022-07-30T05:30:38.416Z,17.53
2022-07-30T05:33:13.351Z,17.55
2022-07-30T05:35:43.134Z,17.59
2022-07-30T05:38:10.166Z,17.62
2022-07-30T05:40:50.686Z,17.67
2022-07-30T05:43:43.774Z,17.75
2022-07-30T05:46:10.909Z,17.81
2022-07-30T05:48:38.671Z,17.88
2022-07-30T05:51:06.107Z,17.94
2022-07-30T05:53:33.218Z,18.04
2022-07-30T05:56:26.660Z,18.11
2022-07-30T05:59:04.142Z,18.18
2022-07-30T06:01:51.136Z,18.30
2022-07-30T06:04:24.275Z,18.40
2022-07-30T06:06:58.621Z,18.50
2022-07-30T06:09:32.930Z,18.61
2022-07-30T06:12:05.272Z,18.71
2022-07-30T06:14:32.512Z,18.80
2022-07-30T06:17:00.109Z,18.89
2022-07-30T06:19:33.118Z,18.99
2022-07-30T06:22:06.177Z,19.07
2022-07-30T06:24:39.108Z,19.14
2022-07-30T06:27:11.443Z,19.22
2022-07-30T06:29:39.225Z,19.30
2022-07-30T06:32:06.503Z,19.42
2022-07-30T06:34:33.513Z,19.52
2022-07-30T06:37:00.861Z,19.62
2022-07-30T06:39:57.863Z,19.73
2022-07-30T06:42:38.859Z,19.89
2022-07-30T06:45:34.769Z,20.00
2022-07-30T06:48:16.599Z,20.09
2022-07-30T06:50:43.995Z,20.16
2022-07-30T06:53:11.545Z,20.25
2022-07-30T06:56:00.177Z,20.31
2022-07-30T06:58:33.784Z,20.38
2022-07-30T07:01:24.870Z,20.44
2022-07-30T07:03:52.833Z,20.52
2022-07-30T07:06:19.959Z,20.65
2022-07-30T07:08:46.987Z,20.72
2022-07-30T07:11:18.000Z,20.79
2022-07-30T07:13:49.463Z,20.90
2022-07-30T07:16:27.319Z,21.03
2022-07-30T07:18:55.874Z,21.17
2022-07-30T07:21:23.463Z,21.30
2022-07-30T07:23:52.511Z,21.39
2022-07-30T07:26:37.941Z,21.59
2022-07-30T07:29:05.435Z,21.68
2022-07-30T07:32:06.962Z,21.79
2022-07-30T07:34:21.031Z,21.87
2022-07-30T07:36:48.786Z,21.92
2022-07-30T07:39:15.962Z,22.02
2022-07-30T07:41:48.213Z,22.13
2022-07-30T07:44:17.353Z,22.16
2022-07-30T07:46:44.402Z,22.23
2022-07-30T07:49:11.478Z,22.34
2022-07-30T07:51:47.495Z,22.45
2022-07-30T07:54:23.300Z,22.57
2022-07-30T07:56:53.254Z,22.68
2022-07-30T07:59:28.371Z,22.79
2022-07-30T08:02:04.131Z,22.92
2022-07-30T08:04:49.904Z,23.04
2022-07-30T08:07:34.859Z,23.21
2022-07-30T08:10:27.811Z,23.35
2022-07-30T08:13:49.256Z,23.47
2022-07-30T08:16:32.050Z,23.51
2022-07-30T08:19:20.824Z,23.55
2022-07-30T08:21:56.156Z,23.59
2022-07-30T08:24:23.168Z,23.70
2022-07-30T08:26:50.197Z,23.80
2022-07-30T08:29:17.499Z,23.88
2022-07-30T08:31:45.438Z,23.99
2022-07-30T08:34:13.440Z,24.08
2022-07-30T08:36:40.895Z,24.11
2022-07-30T08:39:08.702Z,24.17
2022-07-30T08:41:38.658Z,24.24
2022-07-30T08:44:12.658Z,24.31
2022-07-30T08:46:49.424Z,24.38
2022-07-30T08:49:32.616Z,24.49
2022-07-30T08:52:00.136Z,24.55
2022-07-30T08:54:40.728Z,24.61
2022-07-30T08:57:07.861Z,24.65
2022-07-30T08:59:59.907Z,24.67
2022-07-30T09:02:29.937Z,24.75
2022-07-30T09:05:03.507Z,24.80
2022-07-30T09:07:33.611Z,24.88
2022-07-30T09:10:02.001Z,24.95
2022-07-30T09:12:42.819Z,25.03
2022-07-30T09:15:20.295Z,25.11
2022-07-30T09:18:02.746Z,25.20
2022-07-30T09:20:36.621Z,25.35
2022-07-30T09:23:07.796Z,25.51
2022-07-30T09:26:04.203Z,25.68
2022-07-30T09:28:46.514Z,25.82
2022-07-30T09:31:13.764Z,25.86
2022-07-30T09:33:59.190Z,25.80
2022-07-30T09:37:08.591Z,25.80
2022-07-30T09:40:10.510Z,25.75
2022-07-30T09:43:08.901Z,25.75
2022-07-30T09:45:57.159Z,25.86
2022-07-30T09:48:27.696Z,25.94
2022-07-30T09:50:57.553Z,26.05
2022-07-30T09:53:25.087Z,26.21
2022-07-30T09:55:52.624Z,26.27
2022-07-30T09:58:27.222Z,26.30
2022-07-30T10:00:59.341Z,26.32
2022-07-30T10:03:46.513Z,26.26
2022-07-30T10:06:35.292Z,26.26
2022-07-30T10:09:13.631Z,26.32
2022-07-30T10:11:41.599Z,26.41
2022-07-30T10:14:09.722Z,26.50
2022-07-30T10:16:36.952Z,26.58
2022-07-30T10:19:07.112Z,26.69
2022-07-30T10:22:00.480Z,26.86
2022-07-30T10:24:51.903Z,27.02
2022-07-30T10:27:20.363Z,27.16
2022-07-30T10:29:59.516Z,27.17
2022-07-30T10:32:32.214Z,27.13
2022-07-30T10:35:00.892Z,27.13
2022-07-30T10:37:31.809Z,27.17
2022-07-30T10:40:07.414Z,27.13
2022-07-30T10:43:03.102Z,27.13
2022-07-30T10:45:37.108Z,27.15
2022-07-30T10:48:12.721Z,27.13
2022-07-30T10:50:59.829Z,27.10
2022-07-30T10:53:46.636Z,27.16
2022-07-30T10:56:25.536Z,27.25
2022-07-30T10:59:10.686Z,27.30
2022-07-30T11:02:00.938Z,27.37
2022-07-30T11:04:30.544Z,27.34
2022-07-30T11:07:23.911Z,27.37
2022-07-30T11:10:09.193Z,27.45
2022-07-30T11:12:44.111Z,27.54
2022-07-30T11:15:19.135Z,27.69
2022-07-30T11:18:12.025Z,27.86
2022-07-30T11:20:40.802Z,27.91
2022-07-30T11:23:20.046Z,27.89
2022-07-30T11:25:51.102Z,27.88
2022-07-30T11:28:42.001Z,27.93
2022-07-30T11:31:56.656Z,27.99
2022-07-30T11:34:25.930Z,28.01
2022-07-30T11:37:18.390Z,28.05
2022-07-30T11:39:58.163Z,28.06
2022-07-30T11:42:34.459Z,27.99
2022-07-30T11:45:16.629Z,28.03
2022-07-30T11:47:45.436Z,28.01
2022-07-30T11:50:28.963Z,27.96
2022-07-30T11:53:03.542Z,28.04
2022-07-30T11:55:35.095Z,28.16
2022-07-30T11:58:06.642Z,28.29
2022-07-30T12:00:40.319Z,28.39
2022-07-30T12:03:12.761Z,28.52
2022-07-30T12:05:40.692Z,28.57
2022-07-30T12:08:08.539Z,28.74
2022-07-30T12:11:00.770Z,28.74
2022-07-30T12:13:45.477Z,28.83
2022-07-30T12:16:17.498Z,28.98
2022-07-30T12:18:48.850Z,29.17
2022-07-30T12:21:16.872Z,29.16
2022-07-30T12:23:55.211Z,29.25
2022-07-30T12:26:32.057Z,29.24
2022-07-30T12:29:04.788Z,29.14
2022-07-30T12:31:33.576Z,29.14
2022-07-30T12:34:00.844Z,29.22
2022-07-30T12:36:33.020Z,29.35
2022-07-30T12:39:04.912Z,29.53
2022-07-30T12:41:49.389Z,29.53
2022-07-30T12:44:42.109Z,29.65
2022-07-30T12:47:23.886Z,29.61
2022-07-30T12:49:56.073Z,29.52
2022-07-30T12:52:34.805Z,29.42
2022-07-30T12:55:12.645Z,29.37
2022-07-30T12:58:00.756Z,29.31
2022-07-30T13:00:54.771Z,29.35
2022-07-30T13:03:28.205Z,29.46
2022-07-30T13:05:56.795Z,29.60
2022-07-30T13:08:53.655Z,29.73
2022-07-30T13:11:24.827Z,29.90
2022-07-30T13:13:52.450Z,29.96
2022-07-30T13:16:20.758Z,30.07
2022-07-30T13:18:48.214Z,30.10
2022-07-30T13:21:16.090Z,30.15
2022-07-30T13:23:43.134Z,30.16
2022-07-30T13:26:10.911Z,30.21
2022-07-30T13:28:38.196Z,30.13
2022-07-30T13:31:05.546Z,30.20
2022-07-30T13:33:32.711Z,30.30
2022-07-30T13:35:59.659Z,30.25
2022-07-30T13:38:27.525Z,30.32
2022-07-30T13:40:59.067Z,30.36
2022-07-30T13:43:29.045Z,30.49
2022-07-30T13:45:59.988Z,30.62
2022-07-30T13:48:27.819Z,30.62
2022-07-30T13:50:54.978Z,30.71
2022-07-30T13:53:22.058Z,30.78
2022-07-30T13:55:49.185Z,30.83
2022-07-30T13:58:16.148Z,30.86
2022-07-30T14:00:45.101Z,30.93
2022-07-30T14:03:12.635Z,31.14
2022-07-30T14:05:42.264Z,31.08
2022-07-30T14:08:11.752Z,31.02
2022-07-30T14:10:40.232Z,30.97
2022-07-30T14:13:10.253Z,30.85
2022-07-30T14:15:41.355Z,30.80
2022-07-30T14:18:08.369Z,30.72
2022-07-30T14:20:35.352Z,30.63
2022-07-30T14:23:02.650Z,30.56
2022-07-30T14:25:29.736Z,30.50
2022-07-30T14:27:56.723Z,30.43
2022-07-30T14:30:24.638Z,30.33
2022-07-30T14:32:58.301Z,30.37
2022-07-30T14:35:27.472Z,30.42
2022-07-30T14:37:54.491Z,30.47
2022-07-30T14:40:21.726Z,30.54
2022-07-30T14:42:48.746Z,30.68
2022-07-30T14:45:16.020Z,30.68
2022-07-30T14:47:43.097Z,30.60
2022-07-30T14:50:10.172Z,30.62
2022-07-30T14:52:38.722Z,30.74
2022-07-30T14:55:09.416Z,30.81
2022-07-30T14:57:36.625Z,30.87
2022-07-30T15:00:07.542Z,30.91
2022-07-30T15:02:35.232Z,30.90
2022-07-30T15:05:30.302Z,30.78
2022-07-30T15:08:00.229Z,30.73
2022-07-30T15:10:27.351Z,30.69
2022-07-30T15:12:55.010Z,30.72
2022-07-30T15:15:22.525Z,30.72
2022-07-30T15:17:51.028Z,30.69
2022-07-30T15:20:18.993Z,30.72
2022-07-30T15:22:46.143Z,30.69
2022-07-30T15:25:13.187Z,30.76
2022-07-30T15:27:40.191Z,30.85
2022-07-30T15:30:08.022Z,30.97
2022-07-30T15:32:35.253Z,30.93
2022-07-30T15:35:02.238Z,30.89
2022-07-30T15:37:29.259Z,30.91
2022-07-30T15:39:56.262Z,30.95
2022-07-30T15:42:23.664Z,30.99
2022-07-30T15:45:14.257Z,31.00
2022-07-30T15:47:37.776Z,31.02
2022-07-30T15:50:05.833Z,31.08
2022-07-30T15:52:32.928Z,31.09
2022-07-30T15:55:00.112Z,31.18
2022-07-30T15:57:27.159Z,31.11
2022-07-30T15:59:54.140Z,31.03
2022-07-30T16:02:21.186Z,30.95
2022-07-30T16:04:48.400Z,30.93
2022-07-30T16:07:15.458Z,30.89
2022-07-30T16:09:42.649Z,30.87
2022-07-30T16:12:09.613Z,30.89
2022-07-30T16:14:36.779Z,30.84
2022-07-30T16:17:03.748Z,30.85
2022-07-30T16:19:30.723Z,30.73
2022-07-30T16:21:57.848Z,30.62
2022-07-30T16:24:24.858Z,30.52
2022-07-30T16:26:51.808Z,30.48
2022-07-30T16:29:18.866Z,30.48
2022-07-30T16:31:46.834Z,30.48
2022-07-30T16:34:13.949Z,30.35
2022-07-30T16:36:40.924Z,30.31
2022-07-30T16:39:09.225Z,30.22
2022-07-30T16:41:36.878Z,30.17
2022-07-30T16:44:04.866Z,30.19
2022-07-30T16:46:31.912Z,30.17
2022-07-30T16:48:58.933Z,30.13
2022-07-30T16:51:26.011Z,30.13
2022-07-30T16:53:52.993Z,30.13
2022-07-30T16:56:20.235Z,30.06
2022-07-30T16:58:47.228Z,30.14
2022-07-30T17:01:14.484Z,30.25
2022-07-30T17:03:41.913Z,30.32
2022-07-30T17:06:09.129Z,30.42
2022-07-30T17:08:36.289Z,30.42
2022-07-30T17:11:03.910Z,30.48
2022-07-30T17:13:37.021Z,30.50
2022-07-30T17:16:04.281Z,30.47
2022-07-30T17:18:31.297Z,30.31
2022-07-30T17:20:58.501Z,30.20
2022-07-30T17:23:25.475Z,30.17
2022-07-30T17:25:52.459Z,30.11
2022-07-30T17:28:19.500Z,30.08
2022-07-30T17:30:51.373Z,30.00
2022-07-30T17:33:18.316Z,29.80
2022-07-30T17:35:45.271Z,29.66
2022-07-30T17:38:12.256Z,29.55
2022-07-30T17:40:39.220Z,29.52
2022-07-30T17:43:07.506Z,29.48
2022-07-30T17:45:36.707Z,29.49
2022-07-30T17:48:05.104Z,29.39
2022-07-30T17:50:33.305Z,29.33
2022-07-30T17:53:03.314Z,29.30
2022-07-30T17:55:31.587Z,29.23
2022-07-30T17:57:58.634Z,29.25
2022-07-30T18:00:31.075Z,29.23
2022-07-30T18:02:58.060Z,29.22
2022-07-30T18:05:25.083Z,29.13
2022-07-30T18:07:52.056Z,29.15
2022-07-30T18:10:19.125Z,29.04
2022-07-30T18:12:48.826Z,29.03
2022-07-30T18:15:20.038Z,28.93
2022-07-30T18:17:47.222Z,28.85
2022-07-30T18:20:14.983Z,28.78
2022-07-30T18:22:42.733Z,28.72
2022-07-30T18:25:18.715Z,28.68
2022-07-30T18:27:47.739Z,28.57
2022-07-30T18:30:15.308Z,28.48
2022-07-30T18:32:42.535Z,28.40
2022-07-30T18:35:14.059Z,28.34
2022-07-30T18:37:42.763Z,28.24
2022-07-30T18:40:12.297Z,28.19
2022-07-30T18:42:39.908Z,28.09
2022-07-30T18:45:08.410Z,28.04
2022-07-30T18:47:35.395Z,27.96
2022-07-30T18:50:02.703Z,27.88
2022-07-30T18:52:29.698Z,27.80
2022-07-30T18:54:56.900Z,27.71
2022-07-30T18:57:23.892Z,27.61
2022-07-30T18:59:50.989Z,27.53
2022-07-30T19:02:17.944Z,27.45
2022-07-30T19:04:45.160Z,27.34
2022-07-30T19:07:12.171Z,27.26
2022-07-30T19:09:39.238Z,27.17
2022-07-30T19:12:06.809Z,27.06
2022-07-30T19:14:34.513Z,26.97
2022-07-30T19:17:01.567Z,26.88
2022-07-30T19:19:29.952Z,26.80
2022-07-30T19:21:57.333Z,26.73
2022-07-30T19:24:27.628Z,26.64
2022-07-30T19:26:56.163Z,26.55
2022-07-30T19:29:23.300Z,26.45
2022-07-30T19:31:50.336Z,26.37
2022-07-30T19:34:17.343Z,26.29
2022-07-30T19:36:44.328Z,26.21
2022-07-30T19:39:16.133Z,26.13
2022-07-30T19:42:02.032Z,26.06
2022-07-30T19:44:29.544Z,25.99
2022-07-30T19:46:58.382Z,25.91
2022-07-30T19:49:29.584Z,25.85
2022-07-30T19:52:09.808Z,25.74
2022-07-30T19:54:44.544Z,25.67
2022-07-30T19:57:11.518Z,25.60
2022-07-30T19:59:46.461Z,25.52
2022-07-30T20:02:25.974Z,25.43
2022-07-30T20:04:54.758Z,25.37
2022-07-30T20:07:22.030Z,25.32
2022-07-30T20:09:54.736Z,25.24
2022-07-30T20:12:21.812Z,25.19
2022-07-30T20:14:51.627Z,25.11
2022-07-30T20:17:18.640Z,25.04
2022-07-30T20:19:47.764Z,24.96
2022-07-30T20:22:16.511Z,24.88
2022-07-30T20:24:45.312Z,24.81
2022-07-30T20:27:36.121Z,24.76
2022-07-30T20:29:59.391Z,24.68
2022-07-30T20:32:26.818Z,24.62
2022-07-30T20:34:53.873Z,24.59
2022-07-30T20:37:22.572Z,24.56
2022-07-30T20:39:50.120Z,24.50
2022-07-30T20:42:17.302Z,24.47
2022-07-30T20:44:49.340Z,24.42
2022-07-30T20:47:34.479Z,24.41
2022-07-30T20:50:11.213Z,24.38
2022-07-30T20:52:46.420Z,24.37
2022-07-30T20:55:16.539Z,24.34
2022-07-30T20:57:58.031Z,24.30
2022-07-30T21:00:33.274Z,24.23
2022-07-30T21:03:03.313Z,24.16
2022-07-30T21:05:30.502Z,24.13
2022-07-30T21:07:58.555Z,24.10
2022-07-30T21:10:25.612Z,24.08
2022-07-30T21:12:56.434Z,24.02
2022-07-30T21:15:36.064Z,23.96
2022-07-30T21:18:03.848Z,23.88
2022-07-30T21:20:32.190Z,23.73
2022-07-30T21:23:10.038Z,23.55
2022-07-30T21:26:01.330Z,23.33
2022-07-30T21:28:28.090Z,23.04
2022-07-30T21:33:42.293Z,22.92
2022-07-30T21:36:10.530Z,22.99
2022-07-30T21:38:42.347Z,22.99
2022-07-30T21:41:13.849Z,22.97
2022-07-30T21:43:43.865Z,22.94
2022-07-30T21:46:11.560Z,22.95
2022-07-30T21:48:39.678Z,22.93
2022-07-30T21:51:08.515Z,22.91
2022-07-30T21:53:45.020Z,22.87
2022-07-30T21:56:13.611Z,22.83
2022-07-30T21:58:41.556Z,22.79
2022-07-30T22:01:16.417Z,22.79
2022-07-30T22:04:03.922Z,22.79
2022-07-30T22:06:40.199Z,22.75
2022-07-30T22:09:18.691Z,22.75
2022-07-30T22:11:54.448Z,22.76
2022-07-30T22:14:21.393Z,22.76
2022-07-30T22:16:48.349Z,22.75
2022-07-30T22:19:15.772Z,22.75
2022-07-30T22:21:46.293Z,22.76
2022-07-30T22:24:29.187Z,22.75
2022-07-30T22:27:12.284Z,22.75
2022-07-30T22:29:42.982Z,22.75
2022-07-30T22:32:12.266Z,22.76
2022-07-30T22:34:39.369Z,22.75
2022-07-30T22:37:09.230Z,22.70
2022-07-30T22:39:50.574Z,22.69
2022-07-30T22:42:19.505Z,22.67
2022-07-30T22:44:47.508Z,22.62
2022-07-30T22:47:21.118Z,22.56
2022-07-30T22:49:55.220Z,22.48
2022-07-30T22:52:25.536Z,22.38
2022-07-30T22:54:55.442Z,22.27
2022-07-30T22:57:22.869Z,22.21
2022-07-30T22:59:58.385Z,22.18
2022-07-30T23:02:27.850Z,22.12
2022-07-30T23:04:56.332Z,21.99
2022-07-30T23:07:23.638Z,21.76
2022-07-30T23:10:12.302Z,21.66
2022-07-30T23:12:27.316Z,22.97
2022-07-30T23:12:48.485Z,21.54
2022-07-30T23:15:15.530Z,21.57
2022-07-30T23:17:43.506Z,21.56
2022-07-30T23:20:15.064Z,21.53
2022-07-30T23:22:42.048Z,21.53
2022-07-30T23:25:10.925Z,21.55
2022-07-30T23:27:39.271Z,21.55
2022-07-30T23:30:09.894Z,21.54
2022-07-30T23:32:37.961Z,21.54
2022-07-30T23:35:07.234Z,21.57
2022-07-30T23:37:53.156Z,21.59
2022-07-30T23:40:20.135Z,21.57
2022-07-30T23:42:49.978Z,21.59
2022-07-30T23:45:18.136Z,21.59
2022-07-30T23:48:01.434Z,21.61
2022-07-30T23:50:34.388Z,21.62
2022-07-30T23:53:02.908Z,21.66
2022-07-30T23:55:31.929Z,21.67
2022-07-30T23:58:00.089Z,21.69
